^^
Grace C. Lehan Memorial Weather Station Historical Data
Daily Summary for April 22, 2022 Units:  Both    English   Metric
Daily Weekly Monthly Yearly
  High: Low: Average:
Temperature: 50.8 °F /  10.4 °C 30.7 °F /  -0.7 °C 40.5 °F /  4.7 °C
Dew Point: 30.5 °F /  -0.8 °C 21.9 °F /  -5.6 °C 27.2 °F /  -2.7 °C
Humidity: 78% 43.1% 60%
Wind Speed: 2.1mph /  3.4km/h - 0.3mph /  0.5km/h
Wind Gust: 11mph /  17.7km/h - -
Wind- - WSW
Pressure: 30.33 in /  1027 hPa 30.13 in /  1020.2 hPa -
Precipitation: 0.00 in /  0 mm    
 
 
Tabular Data for April 22, 2022
Time Temperature Dew Point Pressure Wind Wind Speed Wind Gust Humidity Rainfall Rate (Hourly) solar
00:04 36.6 °F /  2.6 °C 22 °F /  -5.6 °C 30.20in /  1022.6hPa SW 0.1mph /  0.2km/h 2mph /  3.2km/h 55% 0.00in /  0mm 0 W/m2
00:07 36.6 °F /  2.6 °C 21.9 °F /  -5.6 °C 30.20in /  1022.6hPa Calm   1mph /  1.6km/h 55% 0.00in /  0mm 0 W/m2
00:30 36.3 °F /  2.4 °C 22.5 °F /  -5.3 °C 30.19in /  1022.2hPa Calm   5mph /  8km/h 57% 0.00in /  0mm 0 W/m2
01:00 36.4 °F /  2.4 °C 22.6 °F /  -5.2 °C 30.20in /  1022.6hPa Calm   5mph /  8km/h 57% 0.00in /  0mm 0 W/m2
01:30 36 °F /  2.2 °C 22.7 °F /  -5.2 °C 30.20in /  1022.6hPa Calm   2mph /  3.2km/h 58% 0.00in /  0mm 0 W/m2
02:30 35.4 °F /  1.9 °C 22.9 °F /  -5.1 °C 30.23in /  1023.6hPa Calm   2mph /  3.2km/h 60% 0.00in /  0mm 0 W/m2
03:00 35.6 °F /  2 °C 23.1 °F /  -4.9 °C 30.23in /  1023.6hPa Calm   2mph /  3.2km/h 60% 0.00in /  0mm 0 W/m2
03:30 34.7 °F /  1.5 °C 23 °F /  -5 °C 30.24in /  1023.9hPa Calm   1mph /  1.6km/h 62% 0.00in /  0mm 0 W/m2
04:04 34.4 °F /  1.3 °C 23.1 °F /  -4.9 °C 30.25in /  1024.3hPa Calm   1mph /  1.6km/h 62.9% 0.00in /  0mm 0 W/m2
04:09 34.4 °F /  1.3 °C 23.1 °F /  -4.9 °C 30.25in /  1024.3hPa Calm     63% 0.00in /  0mm 0 W/m2
04:14 34.2 °F /  1.2 °C 23.1 °F /  -4.9 °C 30.25in /  1024.3hPa Calm     63.4% 0.00in /  0mm 0 W/m2
04:19 33.9 °F /  1.1 °C 23 °F /  -5 °C 30.25in /  1024.3hPa Calm     64% 0.00in /  0mm 0 W/m2
04:24 33.6 °F /  0.9 °C 22.9 °F /  -5.1 °C 30.25in /  1024.3hPa Calm     64.5% 0.00in /  0mm 0 W/m2
04:29 33.4 °F /  0.8 °C 22.9 °F /  -5.1 °C 30.25in /  1024.3hPa Calm     65% 0.00in /  0mm 0 W/m2
04:34 33 °F /  0.6 °C 22.8 °F /  -5.1 °C 30.25in /  1024.3hPa Calm     65.6% 0.00in /  0mm 0 W/m2
04:39 32.7 °F /  0.4 °C 22.7 °F /  -5.2 °C 30.25in /  1024.3hPa Calm     66.4% 0.00in /  0mm 0 W/m2
04:44 32.5 °F /  0.3 °C 22.7 °F /  -5.2 °C 30.25in /  1024.3hPa Calm     67% 0.00in /  0mm 0 W/m2
04:49 32.3 °F /  0.2 °C 22.8 °F /  -5.1 °C 30.25in /  1024.3hPa Calm     67.5% 0.00in /  0mm 0 W/m2
04:54 32.2 °F /  0.1 °C 22.9 °F /  -5.1 °C 30.26in /  1024.6hPa Calm     68% 0.00in /  0mm 0 W/m2
04:59 32.3 °F /  0.2 °C 22.9 °F /  -5.1 °C 30.26in /  1024.6hPa Calm     68% 0.00in /  0mm 0 W/m2
05:04 32.3 °F /  0.2 °C 22.9 °F /  -5.1 °C 30.26in /  1024.6hPa Calm     68% 0.00in /  0mm 0 W/m2
05:09 32.3 °F /  0.2 °C 22.9 °F /  -5.1 °C 30.26in /  1024.6hPa Calm     68% 0.00in /  0mm 0 W/m2
05:14 32.3 °F /  0.2 °C 23 °F /  -5 °C 30.26in /  1024.6hPa Calm     68% 0.00in /  0mm 0 W/m2
05:19 32.3 °F /  0.2 °C 22.9 °F /  -5.1 °C 30.26in /  1024.6hPa Calm     68% 0.00in /  0mm 0 W/m2
05:24 32.3 °F /  0.2 °C 22.9 °F /  -5.1 °C 30.26in /  1024.6hPa Calm     68% 0.00in /  0mm 0 W/m2
05:29 32.1 °F /  0.1 °C 22.8 °F /  -5.1 °C 30.26in /  1024.6hPa Calm   1mph /  1.6km/h 68% 0.00in /  0mm 0 W/m2
05:34 32 °F /  0 °C 22.7 °F /  -5.2 °C 30.27in /  1024.9hPa Calm   1mph /  1.6km/h 68% 0.00in /  0mm 0 W/m2
05:39 32 °F /  0 °C 23 °F /  -5 °C 30.27in /  1024.9hPa Calm     68.9% 0.00in /  0mm 0 W/m2
05:44 32 °F /  0 °C 23 °F /  -5 °C 30.27in /  1024.9hPa Calm     69% 0.00in /  0mm 0 W/m2
05:49 31.9 °F /  -0.1 °C 22.9 °F /  -5.1 °C 30.27in /  1024.9hPa Calm     69% 0.00in /  0mm 0 W/m2
05:54 31.9 °F /  -0.1 °C 22.9 °F /  -5.1 °C 30.27in /  1024.9hPa Calm     69% 0.00in /  0mm 0 W/m2
05:59 31.9 °F /  -0.1 °C 22.9 °F /  -5.1 °C 30.27in /  1024.9hPa Calm     69% 0.00in /  0mm 0 W/m2
06:04 31.8 °F /  -0.1 °C 22.8 °F /  -5.1 °C 30.28in /  1025.3hPa Calm     69% 0.00in /  0mm 0 W/m2
06:09 31.7 °F /  -0.2 °C 22.7 °F /  -5.2 °C 30.28in /  1025.3hPa Calm     69% 0.00in /  0mm 0 W/m2
06:14 31.6 °F /  -0.2 °C 22.6 °F /  -5.2 °C 30.28in /  1025.3hPa Calm     69% 0.00in /  0mm 0 W/m2
06:19 31.4 °F /  -0.3 °C 22.7 °F /  -5.2 °C 30.29in /  1025.6hPa Calm     69.6% 0.00in /  0mm 0 W/m2
06:24 31.4 °F /  -0.3 °C 22.7 °F /  -5.2 °C 30.29in /  1025.6hPa Calm     70% 0.00in /  0mm 0 W/m2
06:29 31.3 °F /  -0.4 °C 22.7 °F /  -5.2 °C 30.29in /  1025.6hPa Calm     70% 0.00in /  0mm 0 W/m2
06:34 31.2 °F /  -0.4 °C 22.8 °F /  -5.1 °C 30.29in /  1025.6hPa Calm     70.6% 0.00in /  0mm 0 W/m2
06:39 31.1 °F /  -0.5 °C 23.1 °F /  -4.9 °C 30.29in /  1025.6hPa Calm     71.8% 0.00in /  0mm 0 W/m2
06:44 31 °F /  -0.6 °C 22.7 °F /  -5.2 °C 30.29in /  1025.6hPa Calm     71% 0.00in /  0mm 0 W/m2
06:49 30.9 °F /  -0.6 °C 22.9 °F /  -5.1 °C 30.29in /  1025.6hPa Calm     71.8% 0.00in /  0mm 0 W/m2
06:54 30.8 °F /  -0.7 °C 22.8 °F /  -5.1 °C 30.29in /  1025.6hPa Calm     72% 0.00in /  0mm 7 W/m2
06:59 30.7 °F /  -0.7 °C 22.7 °F /  -5.2 °C 30.30in /  1026hPa Calm     72% 0.00in /  0mm 11 W/m2
07:04 30.7 °F /  -0.7 °C 22.9 °F /  -5.1 °C 30.30in /  1026hPa Calm     72.7% 0.00in /  0mm 12 W/m2
07:09 30.8 °F /  -0.7 °C 23.1 °F /  -4.9 °C 30.31in /  1026.3hPa Calm     73% 0.00in /  0mm 19 W/m2
07:14 30.8 °F /  -0.7 °C 23.2 °F /  -4.9 °C 30.31in /  1026.3hPa Calm     73% 0.00in /  0mm 23 W/m2
07:19 31 °F /  -0.6 °C 23.3 °F /  -4.8 °C 30.30in /  1026hPa Calm     73% 0.00in /  0mm 40 W/m2
07:24 31.2 °F /  -0.4 °C 23.5 °F /  -4.7 °C 30.30in /  1026hPa Calm     73% 0.00in /  0mm 67 W/m2
07:29 31.6 °F /  -0.2 °C 24 °F /  -4.4 °C 30.31in /  1026.3hPa Calm     73% 0.00in /  0mm 88 W/m2
07:34 32.5 °F /  0.3 °C 24.7 °F /  -4.1 °C 30.31in /  1026.3hPa SW 0.2mph /  0.3km/h 3mph /  4.8km/h 72.8% 0.00in /  0mm 104 W/m2
07:39 33.6 °F /  0.9 °C 25.4 °F /  -3.7 °C 30.31in /  1026.3hPa Calm   3mph /  4.8km/h 71.5% 0.00in /  0mm 120 W/m2
07:44 34.8 °F /  1.6 °C 25.9 °F /  -3.4 °C 30.32in /  1026.6hPa Calm   3mph /  4.8km/h 69.5% 0.00in /  0mm 139 W/m2
07:49 35.9 °F /  2.2 °C 26.1 °F /  -3.3 °C 30.31in /  1026.3hPa Calm   3mph /  4.8km/h 67.3% 0.00in /  0mm 151 W/m2
07:54 37 °F /  2.8 °C 26.4 °F /  -3.1 °C 30.32in /  1026.6hPa Calm   3mph /  4.8km/h 65.3% 0.00in /  0mm 151 W/m2
07:59 37.8 °F /  3.2 °C 26.5 °F /  -3.1 °C 30.32in /  1026.6hPa Calm   3mph /  4.8km/h 63.5% 0.00in /  0mm 141 W/m2
08:04 39.1 °F /  3.9 °C 27 °F /  -2.8 °C 30.32in /  1026.6hPa Calm     61.3% 0.00in /  0mm 144 W/m2
08:09 39.5 °F /  4.2 °C 26.9 °F /  -2.8 °C 30.32in /  1026.6hPa Calm     60.3% 0.00in /  0mm 179 W/m2
08:14 40.2 °F /  4.6 °C 27.1 °F /  -2.7 °C 30.32in /  1026.6hPa Calm     59.3% 0.00in /  0mm 220 W/m2
08:19 40.9 °F /  4.9 °C 27.3 °F /  -2.6 °C 30.32in /  1026.6hPa Calm     58% 0.00in /  0mm 229 W/m2
08:24 41.6 °F /  5.3 °C 27.9 °F /  -2.3 °C 30.32in /  1026.6hPa Calm     57.9% 0.00in /  0mm 250 W/m2
08:29 42.2 °F /  5.7 °C 27.9 °F /  -2.3 °C 30.33in /  1027hPa SW 0.1mph /  0.2km/h 2mph /  3.2km/h 56.5% 0.00in /  0mm 251 W/m2
08:34 42.9 °F /  6.1 °C 28.1 °F /  -2.2 °C 30.33in /  1027hPa SW 0.2mph /  0.3km/h 2mph /  3.2km/h 55.4% 0.00in /  0mm 269 W/m2
08:39 43.6 °F /  6.4 °C 28.2 °F /  -2.1 °C 30.33in /  1027hPa SW 0.4mph /  0.6km/h 3mph /  4.8km/h 54.4% 0.00in /  0mm 278 W/m2
08:44 44.1 °F /  6.7 °C 27.6 °F /  -2.4 °C 30.33in /  1027hPa SW 0.8mph /  1.3km/h 5mph /  8km/h 52.1% 0.00in /  0mm 287 W/m2
08:49 44.4 °F /  6.9 °C 27.9 °F /  -2.3 °C 30.33in /  1027hPa SW 0.2mph /  0.3km/h 5mph /  8km/h 52% 0.00in /  0mm 253 W/m2
08:54 44.5 °F /  6.9 °C 27.9 °F /  -2.3 °C 30.33in /  1027hPa Calm   5mph /  8km/h 51.8% 0.00in /  0mm 246 W/m2
08:59 44.5 °F /  6.9 °C 27.5 °F /  -2.5 °C 30.33in /  1027hPa WSW 0.1mph /  0.2km/h 10mph /  16.1km/h 51% 0.00in /  0mm 128 W/m2
09:04 44.2 °F /  6.8 °C 27.2 °F /  -2.7 °C 30.33in /  1027hPa WSW 0.5mph /  0.8km/h 10mph /  16.1km/h 51% 0.00in /  0mm 179 W/m2
09:09 43.8 °F /  6.6 °C 26.8 °F /  -2.9 °C 30.33in /  1027hPa WSW 1.8mph /  2.9km/h 11mph /  17.7km/h 50.8% 0.00in /  0mm 100 W/m2
09:14 43.3 °F /  6.3 °C 26.8 °F /  -2.9 °C 30.33in /  1027hPa SW 1.1mph /  1.8km/h 11mph /  17.7km/h 51.8% 0.00in /  0mm 121 W/m2
09:19 43 °F /  6.1 °C 26.8 °F /  -2.9 °C 30.33in /  1027hPa WSW 1.5mph /  2.4km/h 11mph /  17.7km/h 52.6% 0.00in /  0mm 181 W/m2
09:24 42.9 °F /  6.1 °C 27.3 °F /  -2.6 °C 30.33in /  1027hPa WSW 1.8mph /  2.9km/h 11mph /  17.7km/h 53.8% 0.00in /  0mm 181 W/m2
09:29 43 °F /  6.1 °C 27.5 °F /  -2.5 °C 30.33in /  1027hPa SW 0.5mph /  0.8km/h 11mph /  17.7km/h 54% 0.00in /  0mm 156 W/m2
09:34 43.1 °F /  6.2 °C 27.6 °F /  -2.4 °C 30.33in /  1027hPa SW 0.1mph /  0.2km/h 11mph /  17.7km/h 54% 0.00in /  0mm 174 W/m2
09:39 43.4 °F /  6.3 °C 28 °F /  -2.2 °C 30.33in /  1027hPa SW 0.2mph /  0.3km/h 2mph /  3.2km/h 54.3% 0.00in /  0mm 176 W/m2
09:44 43.6 °F /  6.4 °C 27.9 °F /  -2.3 °C 30.33in /  1027hPa SW 0.3mph /  0.5km/h 3mph /  4.8km/h 53.7% 0.00in /  0mm 207 W/m2
09:49 43.8 °F /  6.6 °C 27.9 °F /  -2.3 °C 30.33in /  1027hPa WSW 1.1mph /  1.8km/h 5mph /  8km/h 53.4% 0.00in /  0mm 176 W/m2
09:54 43.9 °F /  6.6 °C 28.4 °F /  -2 °C 30.32in /  1026.6hPa WSW 0.2mph /  0.3km/h 5mph /  8km/h 54% 0.00in /  0mm 232 W/m2
09:59 44.2 °F /  6.8 °C 28.7 °F /  -1.8 °C 30.32in /  1026.6hPa WSW 0.5mph /  0.8km/h 5mph /  8km/h 54% 0.00in /  0mm 339 W/m2
10:04 44.8 °F /  7.1 °C 29.2 °F /  -1.6 °C 30.32in /  1026.6hPa Calm   5mph /  8km/h 54.2% 0.00in /  0mm 434 W/m2
10:09 45.6 °F /  7.6 °C 29.8 °F /  -1.2 °C 30.32in /  1026.6hPa WSW 1.2mph /  1.9km/h 10mph /  16.1km/h 53.7% 0.00in /  0mm 441 W/m2
10:14 46.4 °F /  8 °C 29.9 °F /  -1.2 °C 30.32in /  1026.6hPa WSW 0.7mph /  1.1km/h 10mph /  16.1km/h 52.2% 0.00in /  0mm 443 W/m2
10:19 47.2 °F /  8.4 °C 30.2 °F /  -1 °C 30.32in /  1026.6hPa West 1.1mph /  1.8km/h 10mph /  16.1km/h 51.2% 0.00in /  0mm 480 W/m2
10:24 47.9 °F /  8.8 °C 30.3 °F /  -0.9 °C 30.32in /  1026.6hPa West 0.1mph /  0.2km/h 10mph /  16.1km/h 50.3% 0.00in /  0mm 485 W/m2
10:29 48.4 °F /  9.1 °C 30.3 °F /  -0.9 °C 30.31in /  1026.3hPa Calm   10mph /  16.1km/h 49.3% 0.00in /  0mm 492 W/m2
10:34 48.6 °F /  9.2 °C 30.1 °F /  -1.1 °C 30.32in /  1026.6hPa West 0.6mph /  1km/h 10mph /  16.1km/h 48.6% 0.00in /  0mm 490 W/m2
10:39 48.6 °F /  9.2 °C 30.5 °F /  -0.8 °C 30.32in /  1026.6hPa West 0.1mph /  0.2km/h 5mph /  8km/h 49.3% 0.00in /  0mm 439 W/m2
10:44 48.6 °F /  9.2 °C 30.3 °F /  -0.9 °C 30.31in /  1026.3hPa WSW 2.1mph /  3.4km/h 7mph /  11.3km/h 48.9% 0.00in /  0mm 206 W/m2
10:49 48.4 °F /  9.1 °C 30.4 °F /  -0.9 °C 30.31in /  1026.3hPa West 0.2mph /  0.3km/h 7mph /  11.3km/h 49.5% 0.00in /  0mm 160 W/m2
10:54 48.2 °F /  9 °C 30 °F /  -1.1 °C 30.31in /  1026.3hPa West 0.9mph /  1.4km/h 7mph /  11.3km/h 49% 0.00in /  0mm 446 W/m2
10:59 48.2 °F /  9 °C 29.8 °F /  -1.2 °C 30.31in /  1026.3hPa West 0.1mph /  0.2km/h 7mph /  11.3km/h 48.8% 0.00in /  0mm 366 W/m2
11:04 48 °F /  8.9 °C 29.9 °F /  -1.2 °C 30.30in /  1026hPa West 0.1mph /  0.2km/h 7mph /  11.3km/h 49.2% 0.00in /  0mm 141 W/m2
11:09 48.1 °F /  8.9 °C 30.3 °F /  -0.9 °C 30.30in /  1026hPa West 0.4mph /  0.6km/h 2mph /  3.2km/h 50% 0.00in /  0mm 306 W/m2
11:14 47.9 °F /  8.8 °C 29.7 °F /  -1.3 °C 30.30in /  1026hPa West 0.4mph /  0.6km/h 6mph /  9.7km/h 49% 0.00in /  0mm 301 W/m2
11:19 47.8 °F /  8.8 °C 29.9 °F /  -1.2 °C 30.30in /  1026hPa West 0.8mph /  1.3km/h 6mph /  9.7km/h 49.6% 0.00in /  0mm 287 W/m2
11:24 47.9 °F /  8.8 °C 30.2 °F /  -1 °C 30.29in /  1025.6hPa WSW 0.4mph /  0.6km/h 6mph /  9.7km/h 50.2% 0.00in /  0mm 255 W/m2
11:29 48 °F /  8.9 °C 29.8 °F /  -1.2 °C 30.29in /  1025.6hPa WSW 1.1mph /  1.8km/h 9mph /  14.5km/h 49.1% 0.00in /  0mm 97 W/m2
11:34 48 °F /  8.9 °C 30 °F /  -1.1 °C 30.28in /  1025.3hPa WSW 1.2mph /  1.9km/h 9mph /  14.5km/h 49.4% 0.00in /  0mm 204 W/m2
11:39 48.1 °F /  8.9 °C 29.8 °F /  -1.2 °C 30.28in /  1025.3hPa WSW 0.2mph /  0.3km/h 5mph /  8km/h 49% 0.00in /  0mm 144 W/m2
11:44 48.1 °F /  8.9 °C 30.2 °F /  -1 °C 30.28in /  1025.3hPa WSW 0.5mph /  0.8km/h 5mph /  8km/h 49.7% 0.00in /  0mm 244 W/m2
11:49 48.3 °F /  9.1 °C 30.1 °F /  -1.1 °C 30.28in /  1025.3hPa WSW 0.6mph /  1km/h 6mph /  9.7km/h 49.2% 0.00in /  0mm 204 W/m2
11:54 48.5 °F /  9.2 °C 30.1 °F /  -1.1 °C 30.27in /  1024.9hPa WSW 0.6mph /  1km/h 6mph /  9.7km/h 48.8% 0.00in /  0mm 47 W/m2
11:59 48.6 °F /  9.2 °C 29.9 °F /  -1.2 °C 30.27in /  1024.9hPa WSW 0.5mph /  0.8km/h 6mph /  9.7km/h 48.1% 0.00in /  0mm 322 W/m2
12:00 48.8 °F /  9.3 °C 30 °F /  -1.1 °C 30.27in /  1024.9hPa Calm   6mph /  9.7km/h 48% 0.00in /  0mm 299 W/m2
12:09 49 °F /  9.4 °C 30.1 °F /  -1.1 °C 30.27in /  1024.9hPa West 0.5mph /  0.8km/h 2mph /  3.2km/h 47.8% 0.00in /  0mm 202 W/m2
12:14 49.1 °F /  9.5 °C 30.2 °F /  -1 °C 30.26in /  1024.6hPa WSW 1.1mph /  1.8km/h 7mph /  11.3km/h 47.9% 0.00in /  0mm 63 W/m2
12:19 49.2 °F /  9.6 °C 30.1 °F /  -1.1 °C 30.26in /  1024.6hPa WSW 0.2mph /  0.3km/h 7mph /  11.3km/h 47.5% 0.00in /  0mm 299 W/m2
12:24 49.2 °F /  9.6 °C 30.4 °F /  -0.9 °C 30.26in /  1024.6hPa West 1.6mph /  2.6km/h 7mph /  11.3km/h 48% 0.00in /  0mm 132 W/m2
12:29 49.2 °F /  9.6 °C 30.1 °F /  -1.1 °C 30.26in /  1024.6hPa WSW 1.9mph /  3.1km/h 10mph /  16.1km/h 47.5% 0.00in /  0mm 246 W/m2
12:34 49.3 °F /  9.6 °C 30.2 °F /  -1 °C 30.26in /  1024.6hPa WSW 0.7mph /  1.1km/h 10mph /  16.1km/h 47.5% 0.00in /  0mm 65 W/m2
12:39 49.4 °F /  9.7 °C 30.5 °F /  -0.8 °C 30.25in /  1024.3hPa WSW 0.1mph /  0.2km/h 5mph /  8km/h 47.9% 0.00in /  0mm 40 W/m2
12:44 49.5 °F /  9.7 °C 30.4 °F /  -0.9 °C 30.25in /  1024.3hPa WSW 0.5mph /  0.8km/h 5mph /  8km/h 47.6% 0.00in /  0mm 40 W/m2
12:49 49.5 °F /  9.7 °C 30.4 °F /  -0.9 °C 30.25in /  1024.3hPa WSW 0.3mph /  0.5km/h 5mph /  8km/h 47.5% 0.00in /  0mm 95 W/m2
12:54 49.6 °F /  9.8 °C 30.3 °F /  -0.9 °C 30.25in /  1024.3hPa WSW 1.6mph /  2.6km/h 6mph /  9.7km/h 47% 0.00in /  0mm 125 W/m2
12:59 49.8 °F /  9.9 °C 30 °F /  -1.1 °C 30.24in /  1023.9hPa WSW 0.4mph /  0.6km/h 6mph /  9.7km/h 46.3% 0.00in /  0mm 353 W/m2
13:04 49.9 °F /  9.9 °C 29.8 °F /  -1.2 °C 30.24in /  1023.9hPa WSW 0.9mph /  1.4km/h 6mph /  9.7km/h 45.7% 0.00in /  0mm 323 W/m2
13:09 50.1 °F /  10.1 °C 30.1 °F /  -1.1 °C 30.23in /  1023.6hPa WSW 0.8mph /  1.3km/h 7mph /  11.3km/h 46% 0.00in /  0mm 257 W/m2
13:14 50.3 °F /  10.2 °C 30.1 °F /  -1.1 °C 30.23in /  1023.6hPa WSW 1.6mph /  2.6km/h 7mph /  11.3km/h 45.6% 0.00in /  0mm 257 W/m2
13:19 50.4 °F /  10.2 °C 29.9 °F /  -1.2 °C 30.23in /  1023.6hPa WSW 0.7mph /  1.1km/h 7mph /  11.3km/h 45% 0.00in /  0mm 360 W/m2
13:24 50.3 °F /  10.2 °C 29.8 °F /  -1.2 °C 30.23in /  1023.6hPa Calm   7mph /  11.3km/h 45% 0.00in /  0mm 357 W/m2
13:29 50.1 °F /  10.1 °C 29.7 °F /  -1.3 °C 30.23in /  1023.6hPa WSW 0.1mph /  0.2km/h 7mph /  11.3km/h 45.1% 0.00in /  0mm 153 W/m2
13:34 50.1 °F /  10.1 °C 29.7 °F /  -1.3 °C 30.23in /  1023.6hPa WSW 0.2mph /  0.3km/h 7mph /  11.3km/h 45.1% 0.00in /  0mm 183 W/m2
13:39 50.1 °F /  10.1 °C 29.6 °F /  -1.3 °C 30.23in /  1023.6hPa WSW 0.7mph /  1.1km/h 3mph /  4.8km/h 45% 0.00in /  0mm 141 W/m2
13:44 50 °F /  10 °C 29.4 °F /  -1.4 °C 30.23in /  1023.6hPa Calm   3mph /  4.8km/h 44.8% 0.00in /  0mm 171 W/m2
13:49 50 °F /  10 °C 29.8 °F /  -1.2 °C 30.22in /  1023.2hPa WSW 0.8mph /  1.3km/h 6mph /  9.7km/h 45.5% 0.00in /  0mm 285 W/m2
13:54 50.3 °F /  10.2 °C 29.5 °F /  -1.4 °C 30.22in /  1023.2hPa WSW 0.2mph /  0.3km/h 6mph /  9.7km/h 44.4% 0.00in /  0mm 332 W/m2
13:59 50.5 °F /  10.3 °C 29.7 °F /  -1.3 °C 30.22in /  1023.2hPa WSW 1mph /  1.6km/h 6mph /  9.7km/h 44.5% 0.00in /  0mm 162 W/m2
14:04 50.7 °F /  10.4 °C 29.1 °F /  -1.6 °C 30.22in /  1023.2hPa WSW 0.7mph /  1.1km/h 6mph /  9.7km/h 43.2% 0.00in /  0mm 130 W/m2
14:09 50.8 °F /  10.4 °C 29.5 °F /  -1.4 °C 30.22in /  1023.2hPa West 1.1mph /  1.8km/h 9mph /  14.5km/h 43.6% 0.00in /  0mm 102 W/m2
14:14 50.7 °F /  10.4 °C 29.1 °F /  -1.6 °C 30.22in /  1023.2hPa WSW 1.3mph /  2.1km/h 9mph /  14.5km/h 43.2% 0.00in /  0mm 76 W/m2
14:19 50.5 °F /  10.3 °C 28.9 °F /  -1.7 °C 30.22in /  1023.2hPa WSW 0.6mph /  1km/h 9mph /  14.5km/h 43.1% 0.00in /  0mm 39 W/m2
14:24 50.2 °F /  10.1 °C 29.1 °F /  -1.6 °C 30.21in /  1022.9hPa WSW 0.3mph /  0.5km/h 9mph /  14.5km/h 44% 0.00in /  0mm 46 W/m2
14:29 49.9 °F /  9.9 °C 28.5 °F /  -1.9 °C 30.21in /  1022.9hPa WSW 1.8mph /  2.9km/h 10mph /  16.1km/h 43.3% 0.00in /  0mm 56 W/m2
14:34 49.6 °F /  9.8 °C 28.1 °F /  -2.2 °C 30.21in /  1022.9hPa WSW 0.6mph /  1km/h 10mph /  16.1km/h 43.2% 0.00in /  0mm 32 W/m2
14:39 49.3 °F /  9.6 °C 28.4 °F /  -2 °C 30.21in /  1022.9hPa WSW 0.4mph /  0.6km/h 5mph /  8km/h 44% 0.00in /  0mm 35 W/m2
14:44 49.2 °F /  9.6 °C 28.3 °F /  -2.1 °C 30.21in /  1022.9hPa WSW 0.4mph /  0.6km/h 5mph /  8km/h 44.1% 0.00in /  0mm 35 W/m2
14:49 49 °F /  9.4 °C 28.4 °F /  -2 °C 30.21in /  1022.9hPa WSW 1.1mph /  1.8km/h 6mph /  9.7km/h 44.6% 0.00in /  0mm 35 W/m2
14:50 48.9 °F /  9.4 °C 28.5 °F /  -1.9 °C 30.20in /  1022.6hPa WSW 0.7mph /  1.1km/h 6mph /  9.7km/h 45% 0.00in /  0mm 32 W/m2
15:00 48.7 °F /  9.3 °C 28.3 °F /  -2.1 °C 30.20in /  1022.6hPa WSW 1mph /  1.6km/h 6mph /  9.7km/h 45% 0.00in /  0mm 31 W/m2
15:30 48.7 °F /  9.3 °C 28.9 °F /  -1.7 °C 30.19in /  1022.2hPa Calm   4mph /  6.4km/h 46% 0.00in /  0mm 26 W/m2
16:04 47.6 °F /  8.7 °C 29.2 °F /  -1.6 °C 30.19in /  1022.2hPa WSW 0.2mph /  0.3km/h 4mph /  6.4km/h 48.5% 0.00in /  0mm 26 W/m2
16:09 47.4 °F /  8.6 °C 29.2 °F /  -1.6 °C 30.18in /  1021.9hPa Calm   2mph /  3.2km/h 49% 0.00in /  0mm 9 W/m2
16:14 47.1 °F /  8.4 °C 28.9 °F /  -1.7 °C 30.18in /  1021.9hPa Calm   2mph /  3.2km/h 49% 0.00in /  0mm 7 W/m2
16:19 46.8 °F /  8.2 °C 28.9 °F /  -1.7 °C 30.18in /  1021.9hPa Calm   2mph /  3.2km/h 49.4% 0.00in /  0mm 5 W/m2
16:24 46.6 °F /  8.1 °C 28.9 °F /  -1.7 °C 30.18in /  1021.9hPa Calm   2mph /  3.2km/h 50% 0.00in /  0mm 0 W/m2
16:29 46.3 °F /  7.9 °C 28.8 °F /  -1.8 °C 30.19in /  1022.2hPa WSW 0.2mph /  0.3km/h 2mph /  3.2km/h 50.1% 0.00in /  0mm 0 W/m2
16:34 46.1 °F /  7.8 °C 29 °F /  -1.7 °C 30.19in /  1022.2hPa Calm   2mph /  3.2km/h 51% 0.00in /  0mm 0 W/m2
16:39 46 °F /  7.8 °C 29 °F /  -1.7 °C 30.19in /  1022.2hPa Calm   1mph /  1.6km/h 51.4% 0.00in /  0mm 0 W/m2
16:44 45.8 °F /  7.7 °C 29.2 °F /  -1.6 °C 30.19in /  1022.2hPa WSW 0.1mph /  0.2km/h 1mph /  1.6km/h 52% 0.00in /  0mm 0 W/m2
16:49 45.6 °F /  7.6 °C 29.1 °F /  -1.6 °C 30.19in /  1022.2hPa Calm   1mph /  1.6km/h 52.2% 0.00in /  0mm 0 W/m2
16:54 45.4 °F /  7.4 °C 29.3 °F /  -1.5 °C 30.19in /  1022.2hPa Calm   1mph /  1.6km/h 53% 0.00in /  0mm 0 W/m2
16:59 45.3 °F /  7.4 °C 29.2 °F /  -1.6 °C 30.19in /  1022.2hPa Calm   1mph /  1.6km/h 53% 0.00in /  0mm 0 W/m2
17:04 45.1 °F /  7.3 °C 29.2 °F /  -1.6 °C 30.19in /  1022.2hPa Calm   1mph /  1.6km/h 53.3% 0.00in /  0mm 0 W/m2
17:09 45 °F /  7.2 °C 29.3 °F /  -1.5 °C 30.19in /  1022.2hPa Calm     54% 0.00in /  0mm 0 W/m2
17:14 44.8 °F /  7.1 °C 29.2 °F /  -1.6 °C 30.19in /  1022.2hPa Calm     54% 0.00in /  0mm 0 W/m2
17:15 44.7 °F /  7.1 °C 29.1 °F /  -1.6 °C 30.19in /  1022.2hPa Calm     54% 0.00in /  0mm 0 W/m2
17:30 44.2 °F /  6.8 °C 29.1 °F /  -1.6 °C 30.19in /  1022.2hPa Calm   1mph /  1.6km/h 55% 0.00in /  0mm 0 W/m2
18:00 43 °F /  6.1 °C 29.3 °F /  -1.5 °C 30.18in /  1021.9hPa Calm     58% 0.00in /  0mm 0 W/m2
18:30 42 °F /  5.6 °C 29.1 °F /  -1.6 °C 30.19in /  1022.2hPa Calm     60% 0.00in /  0mm 0 W/m2
19:00 41.4 °F /  5.2 °C 29 °F /  -1.7 °C 30.19in /  1022.2hPa Calm     61% 0.00in /  0mm 0 W/m2
19:30 39.8 °F /  4.3 °C 29 °F /  -1.7 °C 30.18in /  1021.9hPa Calm     65% 0.00in /  0mm 0 W/m2
20:04 39.3 °F /  4.1 °C 28.9 °F /  -1.7 °C 30.17in /  1021.6hPa Calm     66% 0.00in /  0mm 0 W/m2
20:09 39.2 °F /  4 °C 28.8 °F /  -1.8 °C 30.17in /  1021.6hPa Calm     66% 0.00in /  0mm 0 W/m2
20:14 38.9 °F /  3.8 °C 28.5 °F /  -1.9 °C 30.17in /  1021.6hPa Calm     66% 0.00in /  0mm 0 W/m2
20:19 38.5 °F /  3.6 °C 28.4 °F /  -2 °C 30.17in /  1021.6hPa Calm     66.8% 0.00in /  0mm 0 W/m2
20:24 38 °F /  3.3 °C 28.3 °F /  -2.1 °C 30.17in /  1021.6hPa Calm     67.8% 0.00in /  0mm 0 W/m2
20:29 37.7 °F /  3.2 °C 28.2 °F /  -2.1 °C 30.16in /  1021.2hPa Calm     68.4% 0.00in /  0mm 0 W/m2
20:34 37.4 °F /  3 °C 28.3 °F /  -2.1 °C 30.16in /  1021.2hPa Calm     69.2% 0.00in /  0mm 0 W/m2
20:39 37.4 °F /  3 °C 28.5 °F /  -1.9 °C 30.16in /  1021.2hPa Calm     70% 0.00in /  0mm 0 W/m2
20:44 37.3 °F /  2.9 °C 28.2 °F /  -2.1 °C 30.16in /  1021.2hPa Calm     69.3% 0.00in /  0mm 0 W/m2
20:49 37.2 °F /  2.9 °C 28 °F /  -2.2 °C 30.16in /  1021.2hPa Calm     69% 0.00in /  0mm 0 W/m2
20:54 37.1 °F /  2.8 °C 28.2 °F /  -2.1 °C 30.16in /  1021.2hPa Calm     70% 0.00in /  0mm 0 W/m2
20:59 37.1 °F /  2.8 °C 28.3 °F /  -2.1 °C 30.16in /  1021.2hPa Calm     70% 0.00in /  0mm 0 W/m2
21:04 37.2 °F /  2.9 °C 28.2 °F /  -2.1 °C 30.16in /  1021.2hPa Calm     69.6% 0.00in /  0mm 0 W/m2
21:09 37.4 °F /  3 °C 28.1 °F /  -2.2 °C 30.16in /  1021.2hPa Calm     69% 0.00in /  0mm 0 W/m2
21:14 37.5 °F /  3.1 °C 28.2 °F /  -2.1 °C 30.15in /  1020.9hPa Calm     69% 0.00in /  0mm 0 W/m2
21:19 37.5 °F /  3.1 °C 28.2 °F /  -2.1 °C 30.15in /  1020.9hPa Calm     68.8% 0.00in /  0mm 0 W/m2
21:24 37.3 °F /  2.9 °C 28.1 °F /  -2.2 °C 30.15in /  1020.9hPa Calm     68.8% 0.00in /  0mm 0 W/m2
21:29 37 °F /  2.8 °C 27.7 °F /  -2.4 °C 30.15in /  1020.9hPa Calm     68.9% 0.00in /  0mm 0 W/m2
21:34 36.6 °F /  2.6 °C 27.7 °F /  -2.4 °C 30.15in /  1020.9hPa Calm     69.9% 0.00in /  0mm 0 W/m2
21:39 36.4 °F /  2.4 °C 27.9 °F /  -2.3 °C 30.15in /  1020.9hPa Calm     71% 0.00in /  0mm 0 W/m2
21:44 36.1 °F /  2.3 °C 27.7 °F /  -2.4 °C 30.15in /  1020.9hPa Calm     71% 0.00in /  0mm 0 W/m2
21:49 35.9 °F /  2.2 °C 27.7 °F /  -2.4 °C 30.15in /  1020.9hPa Calm     71.7% 0.00in /  0mm 0 W/m2
21:54 35.7 °F /  2.1 °C 27.5 °F /  -2.5 °C 30.15in /  1020.9hPa Calm     72% 0.00in /  0mm 0 W/m2
21:59 35.6 °F /  2 °C 27.5 °F /  -2.5 °C 30.15in /  1020.9hPa Calm     72% 0.00in /  0mm 0 W/m2
22:04 35.4 °F /  1.9 °C 27.3 °F /  -2.6 °C 30.15in /  1020.9hPa Calm     72% 0.00in /  0mm 0 W/m2
22:09 35.1 °F /  1.7 °C 27.1 °F /  -2.7 °C 30.14in /  1020.5hPa Calm     72.4% 0.00in /  0mm 0 W/m2
22:14 34.7 °F /  1.5 °C 27 °F /  -2.8 °C 30.15in /  1020.9hPa Calm     73.1% 0.00in /  0mm 0 W/m2
22:19 34.4 °F /  1.3 °C 27 °F /  -2.8 °C 30.14in /  1020.5hPa Calm     74% 0.00in /  0mm 0 W/m2
22:24 34.1 °F /  1.2 °C 27.1 °F /  -2.7 °C 30.14in /  1020.5hPa Calm     75% 0.00in /  0mm 0 W/m2
22:29 34 °F /  1.1 °C 27.1 °F /  -2.7 °C 30.14in /  1020.5hPa Calm     75.5% 0.00in /  0mm 0 W/m2
22:34 33.9 °F /  1.1 °C 27.1 °F /  -2.7 °C 30.14in /  1020.5hPa Calm     76% 0.00in /  0mm 0 W/m2
22:39 33.8 °F /  1 °C 27.1 °F /  -2.7 °C 30.14in /  1020.5hPa Calm     76% 0.00in /  0mm 0 W/m2
22:44 33.7 °F /  0.9 °C 27 °F /  -2.8 °C 30.14in /  1020.5hPa Calm     76% 0.00in /  0mm 0 W/m2
22:49 33.7 °F /  0.9 °C 27 °F /  -2.8 °C 30.14in /  1020.5hPa Calm     76% 0.00in /  0mm 0 W/m2
22:54 33.7 °F /  0.9 °C 27 °F /  -2.8 °C 30.14in /  1020.5hPa Calm     76% 0.00in /  0mm 0 W/m2
22:58 33.6 °F /  0.9 °C 26.9 °F /  -2.8 °C 30.14in /  1020.5hPa Calm     76% 0.00in /  0mm 0 W/m2
23:04 33.4 °F /  0.8 °C 27 °F /  -2.8 °C 30.13in /  1020.2hPa Calm     77% 0.00in /  0mm 0 W/m2
23:09 33.3 °F /  0.7 °C 26.9 °F /  -2.8 °C 30.14in /  1020.5hPa Calm     77% 0.00in /  0mm 0 W/m2
23:14 33.2 °F /  0.7 °C 26.8 °F /  -2.9 °C 30.14in /  1020.5hPa WSW 0.5mph /  0.8km/h 2mph /  3.2km/h 77% 0.00in /  0mm 0 W/m2
23:19 33.3 °F /  0.7 °C 26.9 °F /  -2.8 °C 30.14in /  1020.5hPa Calm   2mph /  3.2km/h 77% 0.00in /  0mm 0 W/m2
23:24 33.4 °F /  0.8 °C 27 °F /  -2.8 °C 30.13in /  1020.2hPa Calm   2mph /  3.2km/h 77% 0.00in /  0mm 0 W/m2
23:29 33.4 °F /  0.8 °C 26.9 °F /  -2.8 °C 30.14in /  1020.5hPa Calm   2mph /  3.2km/h 77% 0.00in /  0mm 0 W/m2
23:34 33.2 °F /  0.7 °C 26.8 °F /  -2.9 °C 30.14in /  1020.5hPa Calm   2mph /  3.2km/h 77% 0.00in /  0mm 0 W/m2
23:39 33 °F /  0.6 °C 26.7 °F /  -2.9 °C 30.13in /  1020.2hPa Calm     77.5% 0.00in /  0mm 0 W/m2
23:44 33 °F /  0.6 °C 26.9 °F /  -2.8 °C 30.14in /  1020.5hPa Calm     78% 0.00in /  0mm 0 W/m2
23:49 33.3 °F /  0.7 °C 27.2 °F /  -2.7 °C 30.13in /  1020.2hPa Calm     78% 0.00in /  0mm 0 W/m2
23:54 33.5 °F /  0.8 °C 27.4 °F /  -2.6 °C 30.13in /  1020.2hPa Calm     77.9% 0.00in /  0mm 0 W/m2
23:59 33.8 °F /  1 °C 27.3 °F /  -2.6 °C 30.13in /  1020.2hPa Calm     77% 0.00in /  0mm 0 W/m2
Hartford County Weather
Compliments of Weather Underground - 2 mb